Time;durP1;ratioP1;P1;durP2;ratioP2;P2;SDS_P1;SDS_P2;PMS_P1;PMS_P2;Temp;Humidity;BMP_temperature;BMP_pressure;BME280_temperature;BME280_humidity;BME280_pressure;Samples;Min_cycle;Max_cycle;Signal;HPM_P1;HPM_P2
2022/10/28 00:01:01;;;;;;;65.68;8.18;;;;;;;;;;5027398;28;20041;-60
2022/10/28 00:03:28;;;;;;;73.93;9.13;;;;;;;;;;5024978;28;20041;-60
2022/10/28 00:06:01;;;;;;;59.53;7.95;;;;;;;;;;5030614;28;20057;-60
2022/10/28 00:08:28;;;;;;;54.15;9.50;;;;;;;;;;5030647;28;20466;-59
2022/10/28 00:11:11;;;;;;;64.30;10.20;;;;;;;;;;5029819;28;20033;-60
2022/10/28 00:13:38;;;;;;;62.38;10.65;;;;;;;;;;5030124;28;20021;-57
2022/10/28 00:16:10;;;;;;;68.82;11.23;;;;;;;;;;5033552;28;20383;-57
2022/10/28 00:18:37;;;;;;;63.53;11.73;;;;;;;;;;5029934;28;20098;-58
2022/10/28 00:21:05;;;;;;;55.95;12.18;;;;;;;;;;5030868;28;20057;-59
2022/10/28 00:23:32;;;;;;;73.30;13.98;;;;;;;;;;5030027;28;20399;-59
2022/10/28 00:26:10;;;;;;;57.17;16.13;;;;;;;;;;5029768;28;20027;-58
2022/10/28 00:28:41;;;;;;;87.40;17.55;;;;;;;;;;5033747;28;20069;-55
2022/10/28 00:31:09;;;;;;;59.22;15.60;;;;;;;;;;5033176;28;20037;-59
2022/10/28 00:33:36;;;;;;;61.78;18.15;;;;;;;;;;5034098;28;20029;-60
2022/10/28 00:36:09;;;;;;;52.92;17.13;;;;;;;;;;5032966;28;20025;-59
2022/10/28 00:38:36;;;;;;;71.28;16.55;;;;;;;;;;5032314;28;20029;-60
2022/10/28 00:41:03;;;;;;;55.55;14.93;;;;;;;;;;5015386;28;20033;-60
2022/10/28 00:43:35;;;;;;;48.53;12.43;;;;;;;;;;5031895;28;20021;-59
2022/10/28 00:46:03;;;;;;;32.20;10.65;;;;;;;;;;5032397;28;20551;-59
2022/10/28 00:48:30;;;;;;;43.90;11.48;;;;;;;;;;5032281;28;20395;-60
2022/10/28 00:50:58;;;;;;;37.25;8.13;;;;;;;;;;5010934;28;20475;-60
2022/10/28 00:53:26;;;;;;;34.65;6.78;;;;;;;;;;5010701;28;20403;-62
2022/10/28 00:55:54;;;;;;;31.20;5.25;;;;;;;;;;5012168;28;20415;-62
2022/10/28 00:58:23;;;;;;;27.27;5.15;;;;;;;;;;5012722;28;20081;-61
2022/10/28 01:00:50;;;;;;;27.20;4.53;;;;;;;;;;5013112;28;20077;-60
2022/10/28 01:03:17;;;;;;;15.25;3.75;;;;;;;;;;5014137;28;20030;-61
2022/10/28 01:05:46;;;;;;;26.85;4.78;;;;;;;;;;5014368;28;20038;-60
2022/10/28 01:08:13;;;;;;;26.15;4.30;;;;;;;;;;5012958;28;20049;-61
2022/10/28 01:10:40;;;;;;;21.52;3.42;;;;;;;;;;5014108;28;20752;-60
2022/10/28 01:13:16;;;;;;;16.55;2.83;;;;;;;;;;5012867;28;20040;-60
2022/10/28 01:15:51;;;;;;;17.00;2.25;;;;;;;;;;5013929;28;20120;-60
2022/10/28 01:18:32;;;;;;;16.90;2.30;;;;;;;;;;5014190;28;20029;-61
2022/10/28 01:21:19;;;;;;;21.92;2.30;;;;;;;;;;5014217;28;20029;-61
2022/10/28 01:23:46;;;;;;;18.50;2.30;;;;;;;;;;5014055;28;20029;-61
2022/10/28 01:26:22;;;;;;;19.02;2.10;;;;;;;;;;5014015;28;20099;-60
2022/10/28 01:29:02;;;;;;;17.50;2.15;;;;;;;;;;5013926;28;20034;-61
2022/10/28 01:31:36;;;;;;;21.92;2.10;;;;;;;;;;5014034;28;20030;-60
2022/10/28 01:34:06;;;;;;;22.30;1.92;;;;;;;;;;5013865;28;20026;-61
2022/10/28 01:36:36;;;;;;;16.85;2.05;;;;;;;;;;5016726;28;20018;-60
2022/10/28 01:39:12;;;;;;;21.23;2.38;;;;;;;;;;5015197;28;20365;-60
2022/10/28 01:41:42;;;;;;;15.45;1.75;;;;;;;;;;5011965;28;20435;-61
2022/10/28 01:44:18;;;;;;;15.18;2.00;;;;;;;;;;5012699;28;20069;-60
2022/10/28 01:46:53;;;;;;;14.00;1.85;;;;;;;;;;5012334;28;20030;-60
2022/10/28 01:49:23;;;;;;;19.13;2.22;;;;;;;;;;5011944;28;20108;-60
2022/10/28 01:51:55;;;;;;;18.05;2.30;;;;;;;;;;5029816;28;20056;-60
2022/10/28 01:54:24;;;;;;;16.58;2.13;;;;;;;;;;5027594;28;20450;-59
2022/10/28 01:56:53;;;;;;;18.23;2.33;;;;;;;;;;5031434;28;20460;-59
2022/10/28 01:59:22;;;;;;;15.45;2.30;;;;;;;;;;5029784;28;20136;-59
2022/10/28 02:01:49;;;;;;;18.67;2.33;;;;;;;;;;5030587;28;20079;-59
2022/10/28 02:04:16;;;;;;;12.88;1.77;;;;;;;;;;5030673;28;20505;-60
2022/10/28 02:06:46;;;;;;;16.70;2.05;;;;;;;;;;5029683;28;20024;-60
2022/10/28 02:09:23;;;;;;;11.80;2.00;;;;;;;;;;5029879;28;20022;-60
2022/10/28 02:12:08;;;;;;;16.42;2.20;;;;;;;;;;5029013;28;20033;-60
2022/10/28 02:14:40;;;;;;;13.10;2.05;;;;;;;;;;5028556;28;20029;-59
2022/10/28 02:17:16;;;;;;;8.35;1.88;;;;;;;;;;5029704;28;20069;-61
2022/10/28 02:19:49;;;;;;;9.57;2.10;;;;;;;;;;5029875;28;20494;-60
2022/10/28 02:22:35;;;;;;;12.82;1.70;;;;;;;;;;5029838;28;20036;-60
2022/10/28 02:25:04;;;;;;;11.27;1.65;;;;;;;;;;5029038;28;20033;-60
2022/10/28 02:27:36;;;;;;;12.73;2.10;;;;;;;;;;5029845;28;20552;-60
2022/10/28 02:30:07;;;;;;;11.63;2.00;;;;;;;;;;5029505;28;20033;-60
2022/10/28 02:32:45;;;;;;;9.03;1.67;;;;;;;;;;5030812;28;20064;-59
2022/10/28 02:35:14;;;;;;;11.68;2.00;;;;;;;;;;5030941;28;20021;-59
2022/10/28 02:37:41;;;;;;;6.80;1.77;;;;;;;;;;5030646;28;20029;-60
2022/10/28 02:40:12;;;;;;;12.70;1.85;;;;;;;;;;5030882;28;20025;-60
2022/10/28 02:42:59;;;;;;;9.63;1.50;;;;;;;;;;5030976;28;20033;-60
2022/10/28 02:45:38;;;;;;;11.57;1.58;;;;;;;;;;5013753;28;20490;-59
2022/10/28 02:48:09;;;;;;;6.72;1.60;;;;;;;;;;5031482;28;20048;-60
2022/10/28 02:50:37;;;;;;;6.78;1.30;;;;;;;;;;5031145;28;20041;-59
2022/10/28 02:53:07;;;;;;;8.43;1.55;;;;;;;;;;5031667;28;20060;-59
2022/10/28 02:55:37;;;;;;;9.00;1.75;;;;;;;;;;5031520;28;20104;-59
2022/10/28 02:58:05;;;;;;;9.07;1.80;;;;;;;;;;5031088;28;20047;-59
2022/10/28 03:00:32;;;;;;;10.10;1.88;;;;;;;;;;5032152;28;20137;-59
2022/10/28 03:02:59;;;;;;;8.57;1.70;;;;;;;;;;5029945;28;20025;-59
2022/10/28 03:05:26;;;;;;;8.68;1.63;;;;;;;;;;5031276;28;20064;-59
2022/10/28 03:07:53;;;;;;;8.18;2.00;;;;;;;;;;5032043;28;20483;-59
2022/10/28 03:10:20;;;;;;;7.57;1.60;;;;;;;;;;5031944;28;20034;-59
2022/10/28 03:12:47;;;;;;;7.07;1.20;;;;;;;;;;5032027;28;20041;-59
2022/10/28 03:15:14;;;;;;;6.82;1.50;;;;;;;;;;5031600;28;20459;-59
2022/10/28 03:17:41;;;;;;;4.72;1.50;;;;;;;;;;5023532;28;20084;-59
2022/10/28 03:20:08;;;;;;;5.63;1.30;;;;;;;;;;5026712;28;20483;-60
2022/10/28 03:22:35;;;;;;;5.47;1.02;;;;;;;;;;5031964;28;20087;-59
2022/10/28 03:25:02;;;;;;;8.23;1.60;;;;;;;;;;5031944;28;20550;-59
2022/10/28 03:27:29;;;;;;;5.18;1.40;;;;;;;;;;5031653;28;20046;-60
2022/10/28 03:29:56;;;;;;;6.65;1.60;;;;;;;;;;5031896;28;20029;-59
2022/10/28 03:32:22;;;;;;;8.70;1.75;;;;;;;;;;5031786;28;20065;-59
2022/10/28 03:34:49;;;;;;;10.40;1.45;;;;;;;;;;5031733;28;20025;-59
2022/10/28 03:37:16;;;;;;;6.03;1.10;;;;;;;;;;5031642;28;20021;-60
2022/10/28 03:39:43;;;;;;;6.55;1.58;;;;;;;;;;5024655;28;20030;-59
2022/10/28 03:42:10;;;;;;;10.60;1.35;;;;;;;;;;5031572;28;20483;-60
2022/10/28 03:44:37;;;;;;;8.40;1.25;;;;;;;;;;5031651;28;20025;-59
2022/10/28 03:47:04;;;;;;;5.80;1.48;;;;;;;;;;5031684;28;20034;-60
2022/10/28 03:49:31;;;;;;;8.48;1.52;;;;;;;;;;5026677;28;20030;-60
2022/10/28 03:51:58;;;;;;;4.93;1.02;;;;;;;;;;5022676;28;20376;-60
2022/10/28 03:54:25;;;;;;;7.68;1.13;;;;;;;;;;5030223;28;20032;-60
2022/10/28 03:56:52;;;;;;;5.05;1.38;;;;;;;;;;5029572;28;20044;-60
2022/10/28 03:59:19;;;;;;;6.60;1.35;;;;;;;;;;5030072;28;20140;-60
2022/10/28 04:01:45;;;;;;;9.07;1.38;;;;;;;;;;5031299;28;20025;-60
2022/10/28 04:04:12;;;;;;;6.30;1.15;;;;;;;;;;5033845;28;20026;-60
2022/10/28 04:06:39;;;;;;;3.30;1.00;;;;;;;;;;5017484;28;20120;-60
2022/10/28 04:09:06;;;;;;;4.78;1.20;;;;;;;;;;5034153;28;20029;-60
2022/10/28 04:11:33;;;;;;;3.88;1.27;;;;;;;;;;5005403;28;20029;-60
2022/10/28 04:14:00;;;;;;;5.22;1.30;;;;;;;;;;5035322;28;20194;-59
2022/10/28 04:16:27;;;;;;;5.63;1.13;;;;;;;;;;5035150;28;20033;-60
2022/10/28 04:18:54;;;;;;;6.50;1.20;;;;;;;;;;5035389;28;20030;-60
2022/10/28 04:21:21;;;;;;;5.82;1.23;;;;;;;;;;5031043;28;20026;-59
2022/10/28 04:23:48;;;;;;;4.30;1.20;;;;;;;;;;5025664;28;20029;-60
2022/10/28 04:26:15;;;;;;;5.28;1.00;;;;;;;;;;5035033;28;20075;-60
2022/10/28 04:28:42;;;;;;;5.57;1.40;;;;;;;;;;5035028;28;20491;-60
2022/10/28 04:31:11;;;;;;;3.10;1.20;;;;;;;;;;5034950;28;20515;-60
2022/10/28 04:33:38;;;;;;;3.53;1.20;;;;;;;;;;5034870;28;20037;-60
2022/10/28 04:36:05;;;;;;;4.45;1.02;;;;;;;;;;5034940;28;20025;-60
2022/10/28 04:38:32;;;;;;;2.58;0.90;;;;;;;;;;5034835;28;20057;-60
2022/10/28 04:40:59;;;;;;;5.22;1.10;;;;;;;;;;5034823;28;20395;-59
2022/10/28 04:43:26;;;;;;;5.80;1.35;;;;;;;;;;5034733;28;20032;-60
2022/10/28 04:45:52;;;;;;;3.17;1.23;;;;;;;;;;5034695;28;20087;-60
2022/10/28 04:48:20;;;;;;;5.28;1.30;;;;;;;;;;5034396;28;20139;-60
2022/10/28 04:50:47;;;;;;;6.88;1.13;;;;;;;;;;5034488;28;20088;-60
2022/10/28 04:53:14;;;;;;;8.10;1.35;;;;;;;;;;5034501;28;20033;-60
2022/10/28 04:55:41;;;;;;;3.85;1.08;;;;;;;;;;5034534;28;20030;-59
2022/10/28 04:58:08;;;;;;;8.18;1.50;;;;;;;;;;5034544;28;20430;-60
2022/10/28 05:00:35;;;;;;;5.75;1.20;;;;;;;;;;5034441;28;20112;-60
2022/10/28 05:03:02;;;;;;;4.28;1.00;;;;;;;;;;5034401;28;20453;-60
2022/10/28 05:05:29;;;;;;;4.38;1.00;;;;;;;;;;5034127;28;20030;-60
2022/10/28 05:07:56;;;;;;;4.38;1.25;;;;;;;;;;5034327;28;20030;-59
2022/10/28 05:10:23;;;;;;;7.60;1.40;;;;;;;;;;5034225;28;20037;-60
2022/10/28 05:12:50;;;;;;;3.78;1.10;;;;;;;;;;5033929;28;20053;-59
2022/10/28 05:15:17;;;;;;;7.78;1.45;;;;;;;;;;5034025;28;20116;-60
2022/10/28 05:17:45;;;;;;;4.97;1.00;;;;;;;;;;5034265;28;20494;-60
2022/10/28 05:20:12;;;;;;;8.43;1.42;;;;;;;;;;5034376;28;20391;-60
2022/10/28 05:22:45;;;;;;;3.10;1.00;;;;;;;;;;5034050;28;20029;-60
2022/10/28 05:25:12;;;;;;;6.18;1.20;;;;;;;;;;5034069;28;20033;-60
2022/10/28 05:27:39;;;;;;;6.13;1.23;;;;;;;;;;5033797;28;20033;-60
2022/10/28 05:30:06;;;;;;;5.07;1.10;;;;;;;;;;5033888;28;20073;-59
2022/10/28 05:32:33;;;;;;;5.63;1.10;;;;;;;;;;5034014;28;20055;-60
2022/10/28 05:35:00;;;;;;;6.38;1.30;;;;;;;;;;5033708;28;20045;-60
2022/10/28 05:37:27;;;;;;;5.20;1.00;;;;;;;;;;5033728;28;20095;-60
2022/10/28 05:39:54;;;;;;;6.72;1.10;;;;;;;;;;5033770;28;20498;-60
2022/10/28 05:42:21;;;;;;;5.88;0.95;;;;;;;;;;5033784;28;20429;-59
2022/10/28 05:44:48;;;;;;;5.20;1.10;;;;;;;;;;5033428;28;20475;-60
2022/10/28 05:47:14;;;;;;;2.67;1.00;;;;;;;;;;5033603;28;20499;-60
2022/10/28 05:49:41;;;;;;;4.13;0.98;;;;;;;;;;5033371;28;20025;-60
2022/10/28 05:52:08;;;;;;;4.32;1.00;;;;;;;;;;5033329;28;20410;-60
2022/10/28 05:54:35;;;;;;;6.88;1.08;;;;;;;;;;5033314;28;20025;-59
2022/10/28 05:57:02;;;;;;;4.38;0.80;;;;;;;;;;5033351;28;20017;-60
2022/10/28 05:59:29;;;;;;;2.58;0.73;;;;;;;;;;5015520;28;20029;-59
2022/10/28 06:01:56;;;;;;;9.00;1.08;;;;;;;;;;5031233;28;20048;-60
2022/10/28 06:04:23;;;;;;;8.73;1.38;;;;;;;;;;5033188;28;20037;-60
2022/10/28 06:06:50;;;;;;;3.50;0.93;;;;;;;;;;5033129;28;20382;-60
2022/10/28 06:09:17;;;;;;;8.52;1.23;;;;;;;;;;5033086;28;20164;-60
2022/10/28 06:11:44;;;;;;;6.07;0.98;;;;;;;;;;5033230;28;20048;-60
2022/10/28 06:14:11;;;;;;;3.58;1.10;;;;;;;;;;5032955;28;20048;-60
2022/10/28 06:16:38;;;;;;;6.03;1.10;;;;;;;;;;5033099;28;20546;-60
2022/10/28 06:19:04;;;;;;;4.43;1.10;;;;;;;;;;5028616;28;20057;-60
2022/10/28 06:21:31;;;;;;;4.20;0.95;;;;;;;;;;5023352;28;20029;-59
2022/10/28 06:23:58;;;;;;;3.20;0.95;;;;;;;;;;5032329;28;20037;-60
2022/10/28 06:26:25;;;;;;;3.45;1.10;;;;;;;;;;5032731;28;20459;-60
2022/10/28 06:28:52;;;;;;;4.32;1.10;;;;;;;;;;5032729;28;20079;-60
2022/10/28 06:31:19;;;;;;;4.25;1.08;;;;;;;;;;5032708;28;20061;-60
2022/10/28 06:33:46;;;;;;;4.88;0.90;;;;;;;;;;5032775;28;20103;-60
2022/10/28 06:36:13;;;;;;;2.53;0.73;;;;;;;;;;5032466;28;20083;-59
2022/10/28 06:38:40;;;;;;;2.95;0.75;;;;;;;;;;5032665;28;20032;-59
2022/10/28 06:41:07;;;;;;;4.95;1.10;;;;;;;;;;5032483;28;20391;-59
2022/10/28 06:43:34;;;;;;;5.60;0.82;;;;;;;;;;5032600;28;20053;-59
2022/10/28 06:46:01;;;;;;;4.03;0.93;;;;;;;;;;5032312;28;20104;-60
2022/10/28 06:48:28;;;;;;;4.10;0.95;;;;;;;;;;5032278;28;20108;-59
2022/10/28 06:50:56;;;;;;;4.47;0.90;;;;;;;;;;5032033;28;20084;-60
2022/10/28 06:53:24;;;;;;;3.50;0.95;;;;;;;;;;5032279;28;20446;-59
2022/10/28 06:55:54;;;;;;;4.78;0.98;;;;;;;;;;5032256;28;20021;-59
2022/10/28 06:58:21;;;;;;;4.50;0.90;;;;;;;;;;5030080;28;20033;-60
2022/10/28 07:00:48;;;;;;;3.80;0.90;;;;;;;;;;5030775;28;20025;-60
2022/10/28 07:03:16;;;;;;;4.53;1.00;;;;;;;;;;5030937;28;20104;-60
2022/10/28 07:05:43;;;;;;;3.60;1.00;;;;;;;;;;5030719;28;20025;-60
2022/10/28 07:08:10;;;;;;;5.20;0.80;;;;;;;;;;5029953;28;20037;-60
2022/10/28 07:10:37;;;;;;;2.28;0.82;;;;;;;;;;5030848;28;20025;-60
2022/10/28 07:13:04;;;;;;;2.95;0.80;;;;;;;;;;5030683;28;20567;-60
2022/10/28 07:15:31;;;;;;;3.53;0.88;;;;;;;;;;5031049;28;20652;-59
2022/10/28 07:17:59;;;;;;;3.25;0.75;;;;;;;;;;5031340;28;20485;-60
2022/10/28 07:20:28;;;;;;;4.95;0.80;;;;;;;;;;5031433;28;20051;-60
2022/10/28 07:22:59;;;;;;;3.92;1.02;;;;;;;;;;5031341;28;20112;-59
2022/10/28 07:25:26;;;;;;;2.08;0.77;;;;;;;;;;5031687;28;20037;-59
2022/10/28 07:27:54;;;;;;;4.53;1.02;;;;;;;;;;5031750;28;20373;-60
2022/10/28 07:30:20;;;;;;;3.95;0.85;;;;;;;;;;5031822;28;20083;-60
2022/10/28 07:32:47;;;;;;;2.83;0.80;;;;;;;;;;5028389;28;20379;-59
2022/10/28 07:35:14;;;;;;;3.58;0.77;;;;;;;;;;5021472;28;20033;-59
2022/10/28 07:37:41;;;;;;;4.35;0.90;;;;;;;;;;5031672;28;20026;-59
2022/10/28 07:40:08;;;;;;;3.92;0.80;;;;;;;;;;5031739;28;20515;-59
2022/10/28 07:42:35;;;;;;;1.27;0.60;;;;;;;;;;5031778;28;20034;-61
2022/10/28 07:45:02;;;;;;;3.33;0.88;;;;;;;;;;5018131;28;20022;-59
2022/10/28 07:47:29;;;;;;;1.52;0.73;;;;;;;;;;5031572;28;20033;-59
2022/10/28 07:49:56;;;;;;;4.57;0.93;;;;;;;;;;5031377;28;20038;-59
2022/10/28 07:52:23;;;;;;;3.10;0.80;;;;;;;;;;5031647;28;20038;-60
2022/10/28 07:54:51;;;;;;;3.00;0.80;;;;;;;;;;5031365;28;20036;-59
2022/10/28 07:57:20;;;;;;;3.42;0.70;;;;;;;;;;5031664;28;20026;-59
2022/10/28 07:59:47;;;;;;;1.20;0.60;;;;;;;;;;5031562;28;20088;-59
2022/10/28 08:02:16;;;;;;;2.00;1.10;;;;;;;;;;5031502;28;20072;-59
2022/10/28 08:04:43;;;;;;;2.30;0.90;;;;;;;;;;5031461;28;20029;-59
2022/10/28 08:07:10;;;;;;;1.42;0.68;;;;;;;;;;5031357;28;20866;-59
2022/10/28 08:09:37;;;;;;;2.45;0.68;;;;;;;;;;5031564;28;20091;-60
2022/10/28 08:12:05;;;;;;;2.42;0.80;;;;;;;;;;5031322;28;20030;-59
2022/10/28 08:14:32;;;;;;;1.65;0.85;;;;;;;;;;5031467;28;20026;-59
2022/10/28 08:16:59;;;;;;;1.40;0.80;;;;;;;;;;5031327;28;20024;-59
2022/10/28 08:19:25;;;;;;;2.20;0.57;;;;;;;;;;5031379;28;20153;-59
2022/10/28 08:21:52;;;;;;;3.40;1.05;;;;;;;;;;5031432;28;20037;-59
2022/10/28 08:24:19;;;;;;;2.95;0.80;;;;;;;;;;5031176;28;20037;-60
2022/10/28 08:26:46;;;;;;;2.45;0.90;;;;;;;;;;5031342;28;20033;-59
2022/10/28 08:29:16;;;;;;;2.90;0.75;;;;;;;;;;5030962;28;20261;-59
2022/10/28 08:31:43;;;;;;;2.35;0.70;;;;;;;;;;5031231;28;20557;-59
2022/10/28 08:34:10;;;;;;;2.28;0.60;;;;;;;;;;5031019;28;20037;-59
2022/10/28 08:36:37;;;;;;;3.17;0.90;;;;;;;;;;5031193;28;20038;-59
2022/10/28 08:39:04;;;;;;;2.80;0.80;;;;;;;;;;5031120;28;20053;-60
2022/10/28 08:41:51;;;;;;;2.08;0.70;;;;;;;;;;5031086;28;20041;-59
2022/10/28 08:44:30;;;;;;;4.07;1.00;;;;;;;;;;5030802;28;20099;-60
2022/10/28 08:47:15;;;;;;;1.80;0.70;;;;;;;;;;5031111;28;20033;-60
2022/10/28 08:49:42;;;;;;;2.78;0.90;;;;;;;;;;5034344;28;20087;-60
2022/10/28 08:52:12;;;;;;;2.45;0.77;;;;;;;;;;5034190;28;20025;-60
2022/10/28 08:55:05;;;;;;;2.00;0.80;;;;;;;;;;5034292;28;20487;-59
2022/10/28 08:57:44;;;;;;;3.13;0.85;;;;;;;;;;5020797;28;20058;-59
2022/10/28 09:00:20;;;;;;;2.50;0.70;;;;;;;;;;5031849;28;20033;-59
2022/10/28 09:02:50;;;;;;;2.90;0.90;;;;;;;;;;5024533;28;20046;-59
2022/10/28 09:05:21;;;;;;;3.70;0.90;;;;;;;;;;5034219;28;20116;-60
2022/10/28 09:07:48;;;;;;;1.40;0.77;;;;;;;;;;5034100;28;20042;-60
2022/10/28 09:10:16;;;;;;;2.38;0.77;;;;;;;;;;5034169;28;20523;-59
2022/10/28 09:12:46;;;;;;;3.17;0.70;;;;;;;;;;5034233;28;20491;-59
2022/10/28 09:15:19;;;;;;;3.35;0.82;;;;;;;;;;5034017;28;20040;-60
2022/10/28 09:17:46;;;;;;;2.88;0.80;;;;;;;;;;5034031;28;20478;-59
2022/10/28 09:20:17;;;;;;;4.80;1.02;;;;;;;;;;5034114;28;20037;-59
2022/10/28 09:22:56;;;;;;;8.83;1.00;;;;;;;;;;5033997;28;20382;-60
2022/10/28 09:25:22;;;;;;;4.18;0.90;;;;;;;;;;5033932;28;20065;-59
2022/10/28 09:27:56;;;;;;;6.38;1.13;;;;;;;;;;5026721;28;20037;-59
2022/10/28 09:30:43;;;;;;;4.40;1.05;;;;;;;;;;5033922;28;20037;-60
2022/10/28 09:33:17;;;;;;;3.08;0.80;;;;;;;;;;5033758;28;20107;-60
2022/10/28 09:35:45;;;;;;;2.72;1.00;;;;;;;;;;5033638;28;20388;-60
2022/10/28 09:38:30;;;;;;;1.67;0.80;;;;;;;;;;5033848;28;20026;-59
2022/10/28 09:41:02;;;;;;;3.97;0.98;;;;;;;;;;5033662;28;20082;-59
2022/10/28 09:43:37;;;;;;;3.72;1.00;;;;;;;;;;5033642;28;20021;-59
2022/10/28 09:46:07;;;;;;;1.60;0.80;;;;;;;;;;5033468;28;20391;-59
2022/10/28 09:48:37;;;;;;;2.35;0.80;;;;;;;;;;5033512;28;20041;-59
2022/10/28 09:51:04;;;;;;;5.07;0.90;;;;;;;;;;5019463;28;20153;-60
2022/10/28 09:53:49;;;;;;;4.18;0.90;;;;;;;;;;5033535;28;20084;-59
2022/10/28 09:56:16;;;;;;;8.27;1.48;;;;;;;;;;5015516;28;20491;-59
2022/10/28 09:58:45;;;;;;;7.95;1.15;;;;;;;;;;5032362;28;20417;-60
2022/10/28 10:01:13;;;;;;;3.42;0.75;;;;;;;;;;5033165;28;20076;-59
2022/10/28 10:03:40;;;;;;;5.63;1.00;;;;;;;;;;5033030;28;20482;-60
2022/10/28 10:06:15;;;;;;;5.15;0.75;;;;;;;;;;5033274;28;20052;-59
2022/10/28 10:08:43;;;;;;;5.20;0.85;;;;;;;;;;5032947;28;20048;-59
2022/10/28 10:11:33;;;;;;;3.47;0.70;;;;;;;;;;5033269;28;20033;-59
2022/10/28 10:14:04;;;;;;;2.50;0.80;;;;;;;;;;5022796;28;20034;-60
2022/10/28 10:16:45;;;;;;;2.97;0.90;;;;;;;;;;5032997;28;20490;-59
2022/10/28 10:19:12;;;;;;;7.13;1.10;;;;;;;;;;5032960;28;20464;-60
2022/10/28 10:21:50;;;;;;;2.88;1.10;;;;;;;;;;5032950;28;20044;-59
2022/10/28 10:24:30;;;;;;;5.18;0.95;;;;;;;;;;5015180;28;20155;-60
2022/10/28 10:27:18;;;;;;;6.00;0.90;;;;;;;;;;5032780;28;20029;-59
2022/10/28 10:29:47;;;;;;;3.20;0.98;;;;;;;;;;5032637;28;20048;-59
2022/10/28 10:32:19;;;;;;;3.10;0.80;;;;;;;;;;5011107;28;20438;-59
2022/10/28 10:34:49;;;;;;;3.13;0.82;;;;;;;;;;5029230;28;20030;-59
2022/10/28 10:37:18;;;;;;;3.58;1.00;;;;;;;;;;5032238;28;20479;-59
2022/10/28 10:39:45;;;;;;;4.72;1.00;;;;;;;;;;5032419;28;20028;-59
2022/10/28 10:42:16;;;;;;;3.00;0.70;;;;;;;;;;5032222;28;20033;-60
2022/10/28 10:44:43;;;;;;;13.82;1.73;;;;;;;;;;5032465;28;20482;-60
2022/10/28 10:47:12;;;;;;;14.57;1.58;;;;;;;;;;5032051;28;20128;-61
2022/10/28 10:49:39;;;;;;;21.63;2.30;;;;;;;;;;5032449;28;20116;-60
2022/10/28 10:52:22;;;;;;;17.70;2.13;;;;;;;;;;5032349;28;20052;-60
2022/10/28 10:55:03;;;;;;;32.03;2.63;;;;;;;;;;5032031;28;20076;-61
2022/10/28 10:57:30;;;;;;;33.10;2.95;;;;;;;;;;5032157;28;20442;-60
2022/10/28 10:59:57;;;;;;;44.03;3.38;;;;;;;;;;5032224;28;20030;-61
2022/10/28 11:02:32;;;;;;;46.38;2.88;;;;;;;;;;5032307;28;20049;-61
2022/10/28 11:05:00;;;;;;;42.10;3.38;;;;;;;;;;5031890;28;20041;-60
2022/10/28 11:07:28;;;;;;;33.60;2.97;;;;;;;;;;5031352;28;20724;-60
2022/10/28 11:09:55;;;;;;;63.30;4.57;;;;;;;;;;5030438;28;20029;-60
2022/10/28 11:12:27;;;;;;;41.63;3.83;;;;;;;;;;5031281;28;20510;-62
2022/10/28 11:14:58;;;;;;;52.92;4.28;;;;;;;;;;5030858;28;20036;-60
2022/10/28 11:17:26;;;;;;;55.47;4.72;;;;;;;;;;5029959;28;20037;-65
2022/10/28 11:19:55;;;;;;;210.43;10.38;;;;;;;;;;5030256;28;20090;-64
2022/10/28 11:22:34;;;;;;;77.72;5.60;;;;;;;;;;5030027;28;20450;-62
2022/10/28 11:25:07;;;;;;;561.42;53.08;;;;;;;;;;5030112;28;20032;-59
2022/10/28 11:27:38;;;;;;;432.23;40.33;;;;;;;;;;5029438;28;20048;-62
2022/10/28 11:30:06;;;;;;;304.05;25.77;;;;;;;;;;5030317;28;20057;-63
2022/10/28 11:32:42;;;;;;;187.85;13.93;;;;;;;;;;5029980;28;20029;-62
2022/10/28 11:35:15;;;;;;;128.90;12.93;;;;;;;;;;5030110;28;20029;-59
2022/10/28 11:37:57;;;;;;;121.63;12.68;;;;;;;;;;5030375;28;20029;-58
2022/10/28 11:40:26;;;;;;;136.32;13.82;;;;;;;;;;5029881;28;20030;-58
2022/10/28 11:43:02;;;;;;;128.98;10.85;;;;;;;;;;5029186;28;20034;-61
2022/10/28 11:45:37;;;;;;;375.08;29.90;;;;;;;;;;5029339;28;20094;-58
2022/10/28 11:48:18;;;;;;;160.23;12.98;;;;;;;;;;5030016;28;20505;-59
2022/10/28 11:50:59;;;;;;;107.57;11.68;;;;;;;;;;5029845;28;20049;-59
2022/10/28 11:53:35;;;;;;;77.50;8.20;;;;;;;;;;5029903;28;20051;-60
2022/10/28 11:56:15;;;;;;;66.60;8.00;;;;;;;;;;5029064;28;20279;-63
2022/10/28 11:59:02;;;;;;;123.75;10.70;;;;;;;;;;4997272;28;20064;-63
2022/10/28 12:01:38;;;;;;;115.53;9.88;;;;;;;;;;5024206;28;20146;-59
2022/10/28 12:04:11;;;;;;;65.78;6.65;;;;;;;;;;5025850;28;20036;-59
2022/10/28 12:06:48;;;;;;;56.85;6.07;;;;;;;;;;5029432;28;20030;-60
2022/10/28 12:09:25;;;;;;;50.38;5.63;;;;;;;;;;5027531;28;20052;-59
2022/10/28 12:12:03;;;;;;;41.88;4.20;;;;;;;;;;5028782;28;20136;-60
2022/10/28 12:14:39;;;;;;;37.63;4.15;;;;;;;;;;5028663;28;20104;-61
2022/10/28 12:17:11;;;;;;;35.03;4.07;;;;;;;;;;5024107;28;20033;-62
2022/10/28 12:19:42;;;;;;;39.35;4.80;;;;;;;;;;5027319;28;20088;-61
2022/10/28 12:22:22;;;;;;;33.58;4.32;;;;;;;;;;5028889;28;20036;-61
2022/10/28 12:24:50;;;;;;;32.83;3.83;;;;;;;;;;5032289;28;20033;-61
2022/10/28 12:27:24;;;;;;;25.75;4.03;;;;;;;;;;5033355;28;20034;-60
2022/10/28 12:30:14;;;;;;;50.63;5.18;;;;;;;;;;5032937;28;20116;-61
2022/10/28 12:32:42;;;;;;;43.55;5.22;;;;;;;;;;5031330;28;20128;-60
2022/10/28 12:35:24;;;;;;;48.15;5.82;;;;;;;;;;5032842;28;20037;-60
2022/10/28 12:38:11;;;;;;;50.87;5.83;;;;;;;;;;5021188;28;20095;-59
2022/10/28 12:40:47;;;;;;;65.72;6.75;;;;;;;;;;5034089;28;20039;-59
2022/10/28 12:43:17;;;;;;;58.72;5.47;;;;;;;;;;5034233;28;20049;-59
2022/10/28 12:45:44;;;;;;;46.83;4.78;;;;;;;;;;5016527;28;20029;-59
2022/10/28 12:48:14;;;;;;;45.97;4.30;;;;;;;;;;5034296;28;20045;-60
2022/10/28 12:50:54;;;;;;;37.88;3.80;;;;;;;;;;5032994;28;20474;-60
2022/10/28 12:53:44;;;;;;;30.58;3.80;;;;;;;;;;5034158;28;20042;-59
2022/10/28 12:56:16;;;;;;;34.38;4.35;;;;;;;;;;5013403;28;20099;-59
2022/10/28 12:59:09;;;;;;;32.38;3.40;;;;;;;;;;5034169;28;20116;-59
2022/10/28 13:01:36;;;;;;;26.60;3.30;;;;;;;;;;5004255;28;20131;-60
2022/10/28 13:04:03;;;;;;;41.58;3.55;;;;;;;;;;5034257;28;20037;-61
2022/10/28 13:06:43;;;;;;;39.00;3.97;;;;;;;;;;5034160;28;20033;-61
2022/10/28 13:09:29;;;;;;;23.83;3.05;;;;;;;;;;5034173;28;20029;-62
2022/10/28 13:11:56;;;;;;;23.83;3.17;;;;;;;;;;5034349;28;20033;-62
2022/10/28 13:14:38;;;;;;;68.05;5.28;;;;;;;;;;5033503;28;20076;-62
2022/10/28 13:17:11;;;;;;;43.28;4.60;;;;;;;;;;5033794;28;20080;-61
2022/10/28 13:19:53;;;;;;;48.58;4.55;;;;;;;;;;5033946;28;20502;-60
2022/10/28 13:22:27;;;;;;;37.67;3.65;;;;;;;;;;5032161;28;20029;-61
2022/10/28 13:25:12;;;;;;;36.33;3.90;;;;;;;;;;5033568;28;20120;-61
2022/10/28 13:27:39;;;;;;;37.55;4.40;;;;;;;;;;5033707;28;20541;-62
2022/10/28 13:30:09;;;;;;;29.23;3.65;;;;;;;;;;5033926;28;20017;-61
2022/10/28 13:32:37;;;;;;;26.40;3.47;;;;;;;;;;5016173;28;20124;-61
2022/10/28 13:35:12;;;;;;;40.70;3.22;;;;;;;;;;5033965;28;20029;-61
2022/10/28 13:37:40;;;;;;;57.42;4.68;;;;;;;;;;5016027;28;20030;-61
2022/10/28 13:40:07;;;;;;;77.78;6.32;;;;;;;;;;5033618;28;20021;-61
2022/10/28 13:42:43;;;;;;;66.88;5.72;;;;;;;;;;5033806;28;20037;-61
2022/10/28 13:45:29;;;;;;;60.22;5.20;;;;;;;;;;5033560;28;20034;-61
2022/10/28 13:48:16;;;;;;;69.80;6.70;;;;;;;;;;5032827;28;20026;-61
2022/10/28 13:50:43;;;;;;;58.65;5.25;;;;;;;;;;5032575;28;20398;-62
2022/10/28 13:53:25;;;;;;;53.03;5.85;;;;;;;;;;5033359;28;20048;-61
2022/10/28 13:55:56;;;;;;;64.65;6.80;;;;;;;;;;5033284;28;20033;-61
2022/10/28 13:58:25;;;;;;;121.97;8.30;;;;;;;;;;5033218;28;20030;-62
2022/10/28 14:00:53;;;;;;;127.43;9.43;;;;;;;;;;5033127;28;20033;-61
2022/10/28 14:03:25;;;;;;;98.18;8.40;;;;;;;;;;5032913;28;20048;-62
2022/10/28 14:05:54;;;;;;;87.97;7.82;;;;;;;;;;5033152;28;20087;-61
2022/10/28 14:08:27;;;;;;;85.20;7.90;;;;;;;;;;5032869;28;20492;-63
2022/10/28 14:11:08;;;;;;;107.50;9.65;;;;;;;;;;5032801;28;20399;-63
2022/10/28 14:13:40;;;;;;;51.42;5.38;;;;;;;;;;5032888;28;20068;-63
2022/10/28 14:16:39;;;;;;;59.60;5.25;;;;;;;;;;5032990;28;20029;-63
2022/10/28 14:19:09;;;;;;;65.28;6.13;;;;;;;;;;4989198;28;20069;-64
2022/10/28 14:21:50;;;;;;;57.90;5.13;;;;;;;;;;5032929;28;20041;-64
2022/10/28 14:24:32;;;;;;;66.60;6.47;;;;;;;;;;5014892;28;20112;-63
2022/10/28 14:27:10;;;;;;;70.30;6.45;;;;;;;;;;5032721;28;20025;-64
2022/10/28 14:29:43;;;;;;;62.88;6.75;;;;;;;;;;5032521;28;20475;-64
2022/10/28 14:32:28;;;;;;;66.85;6.28;;;;;;;;;;5032660;28;20080;-64
2022/10/28 14:34:56;;;;;;;54.80;4.80;;;;;;;;;;5028028;28;20120;-64
2022/10/28 14:37:42;;;;;;;75.47;6.68;;;;;;;;;;5032489;28;20104;-64
2022/10/28 14:40:12;;;;;;;78.38;6.97;;;;;;;;;;5032081;28;20036;-64
2022/10/28 14:42:51;;;;;;;79.75;7.30;;;;;;;;;;5032168;28;20025;-65
2022/10/28 14:45:21;;;;;;;65.40;6.25;;;;;;;;;;5030238;28;20372;-65
2022/10/28 14:47:48;;;;;;;52.25;5.82;;;;;;;;;;5030395;28;20030;-64
2022/10/28 14:50:33;;;;;;;58.92;5.40;;;;;;;;;;5031231;28;20064;-65
2022/10/28 14:53:01;;;;;;;65.45;6.50;;;;;;;;;;5030965;28;20078;-65
2022/10/28 14:55:30;;;;;;;58.45;6.85;;;;;;;;;;5030191;28;20442;-65
2022/10/28 14:58:15;;;;;;;81.43;7.97;;;;;;;;;;5030392;28;20029;-64